sensor_id;sensor_type;location;lat;lon;timestamp;pressure;altitude;pressure_sealevel;temperature;humidity
56270;BME280;42176;43.240;27.880;2023-04-21T00:01:15;99670.75;;;10.50;100.00
56270;BME280;42176;43.240;27.880;2023-04-21T00:03:42;99657.56;;;10.47;100.00
56270;BME280;42176;43.240;27.880;2023-04-21T00:06:08;99665.59;;;10.44;100.00
56270;BME280;42176;43.240;27.880;2023-04-21T00:08:34;99647.19;;;10.41;100.00
56270;BME280;42176;43.240;27.880;2023-04-21T00:11:05;99663.78;;;10.46;100.00
56270;BME280;42176;43.240;27.880;2023-04-21T00:13:31;99660.31;;;10.44;100.00
56270;BME280;42176;43.240;27.880;2023-04-21T00:15:57;99649.00;;;10.38;100.00
56270;BME280;42176;43.240;27.880;2023-04-21T00:18:22;99643.81;;;10.34;100.00
56270;BME280;42176;43.240;27.880;2023-04-21T00:20:48;99644.47;;;10.43;100.00
56270;BME280;42176;43.240;27.880;2023-04-21T00:23:13;99640.03;;;10.43;100.00
56270;BME280;42176;43.240;27.880;2023-04-21T00:25:39;99649.47;;;10.54;100.00
56270;BME280;42176;43.240;27.880;2023-04-21T00:28:04;99649.53;;;10.50;100.00
56270;BME280;42176;43.240;27.880;2023-04-21T00:30:30;99647.72;;;10.53;100.00
56270;BME280;42176;43.240;27.880;2023-04-21T00:32:55;99652.84;;;10.59;100.00
56270;BME280;42176;43.240;27.880;2023-04-21T00:35:21;99650.91;;;10.64;100.00
56270;BME280;42176;43.240;27.880;2023-04-21T00:37:46;99641.88;;;10.71;100.00
56270;BME280;42176;43.240;27.880;2023-04-21T00:42:39;99639.75;;;10.82;100.00
56270;BME280;42176;43.240;27.880;2023-04-21T00:45:05;99635.44;;;10.78;100.00
56270;BME280;42176;43.240;27.880;2023-04-21T00:47:30;99633.09;;;10.69;100.00
56270;BME280;42176;43.240;27.880;2023-04-21T00:49:57;99636.47;;;10.74;100.00
56270;BME280;42176;43.240;27.880;2023-04-21T00:52:23;99632.53;;;10.88;100.00
56270;BME280;42176;43.240;27.880;2023-04-21T00:54:49;99634.06;;;10.95;100.00
56270;BME280;42176;43.240;27.880;2023-04-21T00:57:15;99632.13;;;11.00;100.00
56270;BME280;42176;43.240;27.880;2023-04-21T00:59:40;99620.63;;;11.01;100.00
56270;BME280;42176;43.240;27.880;2023-04-21T01:02:07;99625.59;;;11.10;100.00
56270;BME280;42176;43.240;27.880;2023-04-21T01:04:33;99624.69;;;11.11;100.00
56270;BME280;42176;43.240;27.880;2023-04-21T01:07:04;99626.63;;;11.06;100.00
56270;BME280;42176;43.240;27.880;2023-04-21T01:09:30;99621.53;;;11.00;100.00
56270;BME280;42176;43.240;27.880;2023-04-21T01:12:03;99619.06;;;10.94;100.00
56270;BME280;42176;43.240;27.880;2023-04-21T01:14:30;99618.97;;;10.97;100.00
56270;BME280;42176;43.240;27.880;2023-04-21T01:16:56;99614.47;;;10.99;100.00
56270;BME280;42176;43.240;27.880;2023-04-21T01:19:22;99617.28;;;10.94;100.00
56270;BME280;42176;43.240;27.880;2023-04-21T01:21:49;99613.50;;;11.02;100.00
56270;BME280;42176;43.240;27.880;2023-04-21T01:24:19;99604.63;;;11.03;100.00
56270;BME280;42176;43.240;27.880;2023-04-21T01:26:44;99600.22;;;11.03;100.00
56270;BME280;42176;43.240;27.880;2023-04-21T01:29:14;99587.97;;;10.99;100.00
56270;BME280;42176;43.240;27.880;2023-04-21T01:31:40;99602.13;;;10.98;100.00
56270;BME280;42176;43.240;27.880;2023-04-21T01:34:06;99607.13;;;11.07;100.00
56270;BME280;42176;43.240;27.880;2023-04-21T01:36:31;99585.81;;;11.10;100.00
56270;BME280;42176;43.240;27.880;2023-04-21T01:38:57;99594.75;;;11.08;100.00
56270;BME280;42176;43.240;27.880;2023-04-21T01:41:23;99601.81;;;11.07;100.00
56270;BME280;42176;43.240;27.880;2023-04-21T01:43:48;99602.03;;;11.01;100.00
56270;BME280;42176;43.240;27.880;2023-04-21T01:46:14;99594.19;;;10.98;100.00
56270;BME280;42176;43.240;27.880;2023-04-21T01:48:39;99596.06;;;10.94;100.00
56270;BME280;42176;43.240;27.880;2023-04-21T01:51:05;99594.53;;;10.87;100.00
56270;BME280;42176;43.240;27.880;2023-04-21T01:53:30;99590.28;;;10.81;100.00
56270;BME280;42176;43.240;27.880;2023-04-21T01:55:56;99590.28;;;10.81;100.00
56270;BME280;42176;43.240;27.880;2023-04-21T01:58:21;99589.44;;;10.81;100.00
56270;BME280;42176;43.240;27.880;2023-04-21T02:00:47;99590.38;;;10.78;100.00
56270;BME280;42176;43.240;27.880;2023-04-21T02:03:12;99580.66;;;10.79;100.00
56270;BME280;42176;43.240;27.880;2023-04-21T02:05:37;99588.63;;;10.77;100.00
56270;BME280;42176;43.240;27.880;2023-04-21T02:08:03;99586.91;;;10.76;100.00
56270;BME280;42176;43.240;27.880;2023-04-21T02:10:29;99585.16;;;10.75;100.00
56270;BME280;42176;43.240;27.880;2023-04-21T02:12:54;99583.56;;;10.71;100.00
56270;BME280;42176;43.240;27.880;2023-04-21T02:15:19;99583.81;;;10.62;100.00
56270;BME280;42176;43.240;27.880;2023-04-21T02:17:45;99579.56;;;10.58;100.00
56270;BME280;42176;43.240;27.880;2023-04-21T02:20:11;99579.50;;;10.59;100.00
56270;BME280;42176;43.240;27.880;2023-04-21T02:22:37;99574.13;;;10.61;100.00
56270;BME280;42176;43.240;27.880;2023-04-21T02:25:04;99582.81;;;10.66;100.00
56270;BME280;42176;43.240;27.880;2023-04-21T02:27:29;99581.91;;;10.67;100.00
56270;BME280;42176;43.240;27.880;2023-04-21T02:29:55;99581.91;;;10.67;100.00
56270;BME280;42176;43.240;27.880;2023-04-21T02:32:20;99582.09;;;10.61;100.00
56270;BME280;42176;43.240;27.880;2023-04-21T02:34:46;99582.66;;;10.42;100.00
56270;BME280;42176;43.240;27.880;2023-04-21T02:37:11;99583.47;;;10.44;100.00
56270;BME280;42176;43.240;27.880;2023-04-21T02:39:36;99579.06;;;10.43;100.00
56270;BME280;42176;43.240;27.880;2023-04-21T02:42:02;99581.72;;;10.43;100.00
56270;BME280;42176;43.240;27.880;2023-04-21T02:44:27;99553.13;;;10.25;100.00
56270;BME280;42176;43.240;27.880;2023-04-21T02:46:53;99571.19;;;10.42;100.00
56270;BME280;42176;43.240;27.880;2023-04-21T02:49:18;99571.94;;;10.45;100.00
56270;BME280;42176;43.240;27.880;2023-04-21T02:51:44;99565.81;;;10.45;100.00
56270;BME280;42176;43.240;27.880;2023-04-21T02:54:09;99556.94;;;10.46;100.00
56270;BME280;42176;43.240;27.880;2023-04-21T02:56:35;99550.13;;;10.35;100.00
56270;BME280;42176;43.240;27.880;2023-04-21T02:59:00;99564.91;;;10.44;100.00
56270;BME280;42176;43.240;27.880;2023-04-21T03:01:26;99563.19;;;10.43;100.00
56270;BME280;42176;43.240;27.880;2023-04-21T03:03:51;99572.88;;;10.44;100.00
56270;BME280;42176;43.240;27.880;2023-04-21T03:06:16;99571.94;;;10.45;100.00
56270;BME280;42176;43.240;27.880;2023-04-21T03:08:42;99567.47;;;10.47;100.00
56270;BME280;42176;43.240;27.880;2023-04-21T03:11:07;99563.09;;;10.46;100.00
56270;BME280;42176;43.240;27.880;2023-04-21T03:13:33;99561.34;;;10.45;100.00
56270;BME280;42176;43.240;27.880;2023-04-21T03:15:58;99569.19;;;10.50;100.00
56270;BME280;42176;43.240;27.880;2023-04-21T03:18:24;99565.56;;;10.53;100.00
56270;BME280;42176;43.240;27.880;2023-04-21T03:20:49;99569.72;;;10.61;100.00
56270;BME280;42176;43.240;27.880;2023-04-21T03:23:15;99561.69;;;10.64;100.00
56270;BME280;42176;43.240;27.880;2023-04-21T03:25:41;99565.81;;;10.73;100.00
56270;BME280;42176;43.240;27.880;2023-04-21T03:28:06;99568.25;;;10.79;100.00
56270;BME280;42176;43.240;27.880;2023-04-21T03:30:32;99568.97;;;10.85;100.00
56270;BME280;42176;43.240;27.880;2023-04-21T03:32:57;99568.78;;;10.91;100.00
56270;BME280;42176;43.240;27.880;2023-04-21T03:35:23;99569.56;;;10.94;100.00
56270;BME280;42176;43.240;27.880;2023-04-21T03:37:49;99572.16;;;10.96;100.00
56270;BME280;42176;43.240;27.880;2023-04-21T03:40:15;99565.19;;;10.92;100.00
56270;BME280;42176;43.240;27.880;2023-04-21T03:42:40;99568.78;;;10.91;100.00
56270;BME280;42176;43.240;27.880;2023-04-21T03:45:08;99565.19;;;10.92;100.00
56270;BME280;42176;43.240;27.880;2023-04-21T03:47:34;99566.28;;;10.86;100.00
56270;BME280;42176;43.240;27.880;2023-04-21T03:49:59;99570.72;;;10.86;100.00
56270;BME280;42176;43.240;27.880;2023-04-21T03:52:25;99575.97;;;10.87;100.00
56270;BME280;42176;43.240;27.880;2023-04-21T03:54:50;99580.34;;;10.88;100.00
56270;BME280;42176;43.240;27.880;2023-04-21T03:57:16;99584.59;;;10.94;100.00
56270;BME280;42176;43.240;27.880;2023-04-21T03:59:42;99584.50;;;10.97;100.00
56270;BME280;42176;43.240;27.880;2023-04-21T04:02:08;99583.66;;;10.95;100.00
56270;BME280;42176;43.240;27.880;2023-04-21T04:04:33;99590.22;;;11.11;100.00
56270;BME280;42176;43.240;27.880;2023-04-21T04:06:59;99594.44;;;11.17;100.00
56270;BME280;42176;43.240;27.880;2023-04-21T04:09:24;99589.22;;;11.14;100.00
56270;BME280;42176;43.240;27.880;2023-04-21T04:11:50;99602.94;;;11.29;100.00
56270;BME280;42176;43.240;27.880;2023-04-21T04:14:15;99601.03;;;11.32;100.00
56270;BME280;42176;43.240;27.880;2023-04-21T04:16:41;99602.78;;;11.33;100.00
56270;BME280;42176;43.240;27.880;2023-04-21T04:19:06;99609.66;;;11.39;100.00
56270;BME280;42176;43.240;27.880;2023-04-21T04:21:33;99594.66;;;11.38;100.00
56270;BME280;42176;43.240;27.880;2023-04-21T04:23:59;99608.38;;;11.51;100.00
56270;BME280;42176;43.240;27.880;2023-04-21T04:26:25;99602.16;;;11.52;100.00
56270;BME280;42176;43.240;27.880;2023-04-21T04:28:53;99603.47;;;11.65;100.00
56270;BME280;42176;43.240;27.880;2023-04-21T04:31:21;99612.09;;;11.70;100.00
56270;BME280;42176;43.240;27.880;2023-04-21T04:33:50;99614.72;;;11.72;100.00
56270;BME280;42176;43.240;27.880;2023-04-21T04:36:15;99616.41;;;11.75;100.00
56270;BME280;42176;43.240;27.880;2023-04-21T04:38:41;99622.53;;;11.77;100.00
56270;BME280;42176;43.240;27.880;2023-04-21T04:41:06;99617.03;;;11.81;100.00
56270;BME280;42176;43.240;27.880;2023-04-21T04:43:33;99602.66;;;11.87;100.00
56270;BME280;42176;43.240;27.880;2023-04-21T04:46:01;99607.03;;;11.90;100.00
56270;BME280;42176;43.240;27.880;2023-04-21T04:48:27;99604.41;;;11.88;100.00
56270;BME280;42176;43.240;27.880;2023-04-21T04:50:53;99608.91;;;11.86;100.00
56270;BME280;42176;43.240;27.880;2023-04-21T04:53:18;99609.16;;;11.80;100.00
56270;BME280;42176;43.240;27.880;2023-04-21T04:55:44;99615.13;;;11.85;100.00
56270;BME280;42176;43.240;27.880;2023-04-21T04:58:10;99611.47;;;11.89;100.00
56270;BME280;42176;43.240;27.880;2023-04-21T05:00:35;99606.16;;;11.89;100.00
56270;BME280;42176;43.240;27.880;2023-04-21T05:03:01;99609.63;;;11.91;100.00
56270;BME280;42176;43.240;27.880;2023-04-21T05:05:27;99614.94;;;11.91;100.00
56270;BME280;42176;43.240;27.880;2023-04-21T05:07:52;99611.34;;;11.92;100.00
56270;BME280;42176;43.240;27.880;2023-04-21T05:10:18;99604.19;;;11.94;100.00
56270;BME280;42176;43.240;27.880;2023-04-21T05:12:43;99610.19;;;12.01;100.00
56270;BME280;42176;43.240;27.880;2023-04-21T05:15:09;99605.50;;;12.08;100.00
56270;BME280;42176;43.240;27.880;2023-04-21T05:17:35;99611.75;;;12.07;100.00
56270;BME280;42176;43.240;27.880;2023-04-21T05:20:00;99608.88;;;12.13;100.00
56270;BME280;42176;43.240;27.880;2023-04-21T05:22:26;99619.50;;;12.13;100.00
56270;BME280;42176;43.240;27.880;2023-04-21T05:24:51;99622.09;;;12.14;100.00
56270;BME280;42176;43.240;27.880;2023-04-21T05:27:17;99617.88;;;12.09;100.00
56270;BME280;42176;43.240;27.880;2023-04-21T05:29:43;99617.88;;;12.09;100.00
56270;BME280;42176;43.240;27.880;2023-04-21T05:32:08;99616.16;;;12.08;100.00
56270;BME280;42176;43.240;27.880;2023-04-21T05:34:36;99616.34;;;12.01;100.00
56270;BME280;42176;43.240;27.880;2023-04-21T05:37:01;99621.66;;;12.01;100.00
56270;BME280;42176;43.240;27.880;2023-04-21T05:39:27;99625.94;;;12.06;100.00
56270;BME280;42176;43.240;27.880;2023-04-21T05:41:52;99616.88;;;12.11;100.00
56270;BME280;42176;43.240;27.880;2023-04-21T05:44:18;99613.03;;;12.20;100.00
56270;BME280;42176;43.240;27.880;2023-04-21T05:46:43;99613.56;;;12.30;100.00
56270;BME280;42176;43.240;27.880;2023-04-21T05:49:09;99616.38;;;12.49;100.00
56270;BME280;42176;43.240;27.880;2023-04-21T05:51:34;99611.22;;;12.68;100.00
56270;BME280;42176;43.240;27.880;2023-04-21T05:54:00;99623.47;;;12.94;98.80
56270;BME280;42176;43.240;27.880;2023-04-21T05:56:25;99612.97;;;13.14;96.69
56270;BME280;42176;43.240;27.880;2023-04-21T05:58:51;99614.25;;;13.25;95.60
56270;BME280;42176;43.240;27.880;2023-04-21T06:01:16;99611.47;;;13.29;94.40
56270;BME280;42176;43.240;27.880;2023-04-21T06:03:41;99607.88;;;13.30;92.58
56270;BME280;42176;43.240;27.880;2023-04-21T06:06:07;99597.50;;;13.23;92.12
56270;BME280;42176;43.240;27.880;2023-04-21T06:08:34;99620.13;;;13.34;92.31
56270;BME280;42176;43.240;27.880;2023-04-21T06:11:00;99624.88;;;13.25;91.07
56270;BME280;42176;43.240;27.880;2023-04-21T06:13:25;99626.88;;;13.20;90.62
56270;BME280;42176;43.240;27.880;2023-04-21T06:15:55;99633.50;;;13.10;90.56
56270;BME280;42176;43.240;27.880;2023-04-21T06:18:20;99636.09;;;12.89;91.65
56270;BME280;42176;43.240;27.880;2023-04-21T06:20:50;99646.53;;;12.48;94.62
56270;BME280;42176;43.240;27.880;2023-04-21T06:23:16;99657.41;;;11.91;97.08
56270;BME280;42176;43.240;27.880;2023-04-21T06:25:41;99652.91;;;11.68;100.00
56270;BME280;42176;43.240;27.880;2023-04-21T06:28:06;99674.91;;;11.45;100.00
56270;BME280;42176;43.240;27.880;2023-04-21T06:30:32;99667.81;;;11.18;100.00
56270;BME280;42176;43.240;27.880;2023-04-21T06:32:57;99676.88;;;11.11;100.00
56270;BME280;42176;43.240;27.880;2023-04-21T06:35:23;99671.00;;;11.01;100.00
56270;BME280;42176;43.240;27.880;2023-04-21T06:37:48;99666.88;;;10.91;100.00
56270;BME280;42176;43.240;27.880;2023-04-21T06:40:14;99666.34;;;10.79;100.00
56270;BME280;42176;43.240;27.880;2023-04-21T06:42:42;99668.28;;;10.74;100.00
56270;BME280;42176;43.240;27.880;2023-04-21T06:45:08;99675.94;;;10.84;100.00
56270;BME280;42176;43.240;27.880;2023-04-21T06:47:34;99680.44;;;10.81;100.00
56270;BME280;42176;43.240;27.880;2023-04-21T06:50:00;99674.97;;;10.86;100.00
56270;BME280;42176;43.240;27.880;2023-04-21T06:52:26;99685.66;;;10.85;100.00
56270;BME280;42176;43.240;27.880;2023-04-21T06:54:51;99681.19;;;10.85;100.00
56270;BME280;42176;43.240;27.880;2023-04-21T06:57:16;99696.16;;;10.88;99.50
56270;BME280;42176;43.240;27.880;2023-04-21T06:59:42;99677.50;;;10.61;100.00
56270;BME280;42176;43.240;27.880;2023-04-21T07:02:07;99675.75;;;10.60;100.00
56270;BME280;42176;43.240;27.880;2023-04-21T07:04:33;99669.53;;;10.62;100.00
56270;BME280;42176;43.240;27.880;2023-04-21T07:06:58;99672.13;;;10.64;99.43
56270;BME280;42176;43.240;27.880;2023-04-21T07:09:24;99689.66;;;10.68;99.96
56270;BME280;42176;43.240;27.880;2023-04-21T07:11:49;99673.47;;;10.77;99.21
56270;BME280;42176;43.240;27.880;2023-04-21T07:14:15;99672.47;;;10.81;98.08
56270;BME280;42176;43.240;27.880;2023-04-21T07:16:40;99681.88;;;10.92;97.59
56270;BME280;42176;43.240;27.880;2023-04-21T07:19:06;99655.09;;;11.01;96.42
56270;BME280;42176;43.240;27.880;2023-04-21T07:21:31;99664.47;;;11.11;96.32
56270;BME280;42176;43.240;27.880;2023-04-21T07:24:00;99661.75;;;11.15;95.57
56270;BME280;42176;43.240;27.880;2023-04-21T07:26:26;99666.84;;;11.21;95.86
56270;BME280;42176;43.240;27.880;2023-04-21T07:28:51;99671.47;;;11.14;95.32
56270;BME280;42176;43.240;27.880;2023-04-21T07:31:17;99654.25;;;10.99;95.15
56270;BME280;42176;43.240;27.880;2023-04-21T07:33:43;99656.81;;;11.02;96.30
56270;BME280;42176;43.240;27.880;2023-04-21T07:36:08;99660.31;;;11.04;96.64
56270;BME280;42176;43.240;27.880;2023-04-21T07:38:34;99652.53;;;10.98;95.97
56270;BME280;42176;43.240;27.880;2023-04-21T07:40:59;99635.38;;;11.10;96.82
56270;BME280;42176;43.240;27.880;2023-04-21T07:43:25;99652.66;;;11.22;95.09
56270;BME280;42176;43.240;27.880;2023-04-21T07:45:51;99647.16;;;11.28;93.17
56270;BME280;42176;43.240;27.880;2023-04-21T07:48:17;99649.72;;;11.31;91.62
56270;BME280;42176;43.240;27.880;2023-04-21T07:50:42;99652.03;;;11.42;90.67
56270;BME280;42176;43.240;27.880;2023-04-21T07:53:08;99649.69;;;11.58;91.16
56270;BME280;42176;43.240;27.880;2023-04-21T07:55:33;99645.69;;;11.71;88.91
56270;BME280;42176;43.240;27.880;2023-04-21T07:58:02;99650.94;;;12.00;87.07
56270;BME280;42176;43.240;27.880;2023-04-21T08:00:27;99644.69;;;12.26;83.90
56270;BME280;42176;43.240;27.880;2023-04-21T08:02:53;99652.00;;;12.45;82.87
56270;BME280;42176;43.240;27.880;2023-04-21T08:05:18;99646.94;;;12.61;81.97
56270;BME280;42176;43.240;27.880;2023-04-21T08:07:44;99651.16;;;12.67;79.26
56270;BME280;42176;43.240;27.880;2023-04-21T08:10:09;99651.19;;;12.89;77.69
56270;BME280;42176;43.240;27.880;2023-04-21T08:12:35;99664.44;;;12.90;74.31
56270;BME280;42176;43.240;27.880;2023-04-21T08:15:00;99664.19;;;12.97;72.74
56270;BME280;42176;43.240;27.880;2023-04-21T08:17:30;99670.00;;;12.84;74.53
56270;BME280;42176;43.240;27.880;2023-04-21T08:19:55;99674.56;;;12.81;72.05
56270;BME280;42176;43.240;27.880;2023-04-21T08:22:20;99666.31;;;12.88;73.15
56270;BME280;42176;43.240;27.880;2023-04-21T08:24:47;99674.59;;;13.03;71.65
56270;BME280;42176;43.240;27.880;2023-04-21T08:27:12;99664.06;;;13.00;70.15
56270;BME280;42176;43.240;27.880;2023-04-21T08:29:38;99666.63;;;12.79;71.77
56270;BME280;42176;43.240;27.880;2023-04-21T08:32:03;99674.94;;;12.93;71.74
56270;BME280;42176;43.240;27.880;2023-04-21T08:34:29;99671.84;;;12.82;70.95
56270;BME280;42176;43.240;27.880;2023-04-21T08:36:54;99677.78;;;12.89;70.22
56270;BME280;42176;43.240;27.880;2023-04-21T08:39:20;99668.97;;;12.88;70.84
56270;BME280;42176;43.240;27.880;2023-04-21T08:41:46;99661.72;;;12.92;72.45
56270;BME280;42176;43.240;27.880;2023-04-21T08:44:12;99665.69;;;13.04;71.33
56270;BME280;42176;43.240;27.880;2023-04-21T08:46:38;99649.72;;;13.04;70.77
56270;BME280;42176;43.240;27.880;2023-04-21T08:49:04;99665.31;;;13.13;70.24
56270;BME280;42176;43.240;27.880;2023-04-21T08:51:30;99667.16;;;13.11;69.26
56270;BME280;42176;43.240;27.880;2023-04-21T08:53:56;99656.06;;;13.23;69.57
56270;BME280;42176;43.240;27.880;2023-04-21T08:56:25;99660.38;;;13.48;68.33
56270;BME280;42176;43.240;27.880;2023-04-21T08:58:52;99665.59;;;13.51;68.48
56270;BME280;42176;43.240;27.880;2023-04-21T09:01:17;99663.09;;;13.69;68.07
56270;BME280;42176;43.240;27.880;2023-04-21T09:03:43;99654.69;;;13.99;67.10
56270;BME280;42176;43.240;27.880;2023-04-21T09:06:09;99654.28;;;14.08;64.33
56270;BME280;42176;43.240;27.880;2023-04-21T09:08:42;99658.16;;;14.01;64.97
56270;BME280;42176;43.240;27.880;2023-04-21T09:11:12;99667.53;;;14.10;64.90
56270;BME280;42176;43.240;27.880;2023-04-21T09:13:38;99662.31;;;14.27;64.47
56270;BME280;42176;43.240;27.880;2023-04-21T09:16:14;99659.94;;;14.61;62.32
56270;BME280;42176;43.240;27.880;2023-04-21T09:18:41;99657.53;;;14.55;58.77
56270;BME280;42176;43.240;27.880;2023-04-21T09:21:10;99655.97;;;14.89;58.83
56270;BME280;42176;43.240;27.880;2023-04-21T09:23:47;99648.91;;;14.88;57.86
56270;BME280;42176;43.240;27.880;2023-04-21T09:26:13;99651.78;;;15.02;58.31
56270;BME280;42176;43.240;27.880;2023-04-21T09:28:41;99641.09;;;15.02;56.05
56270;BME280;42176;43.240;27.880;2023-04-21T09:31:21;99640.34;;;15.18;56.56
56270;BME280;42176;43.240;27.880;2023-04-21T09:33:56;99639.91;;;15.27;55.54
56270;BME280;42176;43.240;27.880;2023-04-21T09:36:24;99649.16;;;15.20;54.36
56270;BME280;42176;43.240;27.880;2023-04-21T09:41:19;99645.31;;;14.89;53.26
56270;BME280;42176;43.240;27.880;2023-04-21T09:43:44;99642.13;;;14.81;53.02
56270;BME280;42176;43.240;27.880;2023-04-21T09:46:11;99619.59;;;14.67;52.94
56270;BME280;42176;43.240;27.880;2023-04-21T09:48:43;99646.34;;;14.86;53.01
56270;BME280;42176;43.240;27.880;2023-04-21T09:51:14;99651.00;;;15.00;53.74
56270;BME280;42176;43.240;27.880;2023-04-21T09:53:41;99643.81;;;15.20;55.14
56270;BME280;42176;43.240;27.880;2023-04-21T09:56:11;99633.44;;;15.14;54.27
56270;BME280;42176;43.240;27.880;2023-04-21T09:58:45;99645.88;;;14.96;53.15
56270;BME280;42176;43.240;27.880;2023-04-21T10:01:12;99638.59;;;14.99;53.45
56270;BME280;42176;43.240;27.880;2023-04-21T10:03:39;99624.56;;;14.76;52.65
56270;BME280;42176;43.240;27.880;2023-04-21T10:06:07;99646.19;;;14.70;52.17
56270;BME280;42176;43.240;27.880;2023-04-21T10:08:34;99639.22;;;14.66;53.57
56270;BME280;42176;43.240;27.880;2023-04-21T10:11:01;99644.72;;;14.63;53.64
56270;BME280;42176;43.240;27.880;2023-04-21T10:13:27;99652.97;;;14.77;54.42
56270;BME280;42176;43.240;27.880;2023-04-21T10:18:28;99647.00;;;14.52;55.19
56270;BME280;42176;43.240;27.880;2023-04-21T10:20:57;99650.91;;;14.44;55.81
56270;BME280;42176;43.240;27.880;2023-04-21T10:23:42;99647.13;;;14.49;55.88
56270;BME280;42176;43.240;27.880;2023-04-21T10:31:34;99628.69;;;15.01;52.73
56270;BME280;42176;43.240;27.880;2023-04-21T10:42:20;99636.97;;;16.04;51.25
56270;BME280;42176;43.240;27.880;2023-04-21T10:49:55;99628.50;;;16.29;49.12
56270;BME280;42176;43.240;27.880;2023-04-21T10:52:20;99631.38;;;16.42;48.73
56270;BME280;42176;43.240;27.880;2023-04-21T10:57:19;99637.66;;;16.41;49.22
56270;BME280;42176;43.240;27.880;2023-04-21T10:59:46;99636.97;;;16.04;48.07
56270;BME280;42176;43.240;27.880;2023-04-21T11:02:13;99644.50;;;15.78;49.54
56270;BME280;42176;43.240;27.880;2023-04-21T11:04:40;99644.19;;;15.49;50.86
56270;BME280;42176;43.240;27.880;2023-04-21T11:07:13;99625.19;;;15.18;51.17
56270;BME280;42176;43.240;27.880;2023-04-21T11:09:40;99644.16;;;14.95;51.97
56270;BME280;42176;43.240;27.880;2023-04-21T11:12:14;99643.13;;;14.97;52.41
56270;BME280;42176;43.240;27.880;2023-04-21T11:14:43;99651.00;;;15.00;53.30
56270;BME280;42176;43.240;27.880;2023-04-21T11:17:16;99645.16;;;14.92;53.69
56270;BME280;42176;43.240;27.880;2023-04-21T11:19:54;99645.97;;;14.94;53.82
56270;BME280;42176;43.240;27.880;2023-04-21T11:22:21;99638.47;;;15.20;53.72
56270;BME280;42176;43.240;27.880;2023-04-21T11:24:49;99622.13;;;15.09;52.73
56270;BME280;42176;43.240;27.880;2023-04-21T11:27:15;99619.47;;;15.09;52.73
56270;BME280;42176;43.240;27.880;2023-04-21T11:29:44;99628.84;;;14.98;51.58
56270;BME280;42176;43.240;27.880;2023-04-21T11:32:11;99611.97;;;14.98;50.60
56270;BME280;42176;43.240;27.880;2023-04-21T11:34:37;99601.88;;;15.04;50.54
56270;BME280;42176;43.240;27.880;2023-04-21T11:37:03;99613.44;;;15.40;51.94
56270;BME280;42176;43.240;27.880;2023-04-21T11:39:30;99618.41;;;15.65;51.40
56270;BME280;42176;43.240;27.880;2023-04-21T11:41:56;99613.31;;;15.78;50.21
56270;BME280;42176;43.240;27.880;2023-04-21T11:44:41;99620.78;;;15.54;49.01
56270;BME280;42176;43.240;27.880;2023-04-21T11:47:15;99605.97;;;15.29;49.05
56270;BME280;42176;43.240;27.880;2023-04-21T11:50:06;99628.38;;;15.27;50.39
56270;BME280;42176;43.240;27.880;2023-04-21T11:52:33;99631.69;;;15.13;51.26
56270;BME280;42176;43.240;27.880;2023-04-21T11:55:12;99591.03;;;15.07;51.97
56270;BME280;42176;43.240;27.880;2023-04-21T11:57:41;99616.16;;;14.65;53.45
56270;BME280;42176;43.240;27.880;2023-04-21T12:00:09;99618.19;;;14.60;54.15
56270;BME280;42176;43.240;27.880;2023-04-21T12:02:36;99603.25;;;14.56;53.97
56270;BME280;42176;43.240;27.880;2023-04-21T12:05:02;99614.00;;;14.54;52.65
56270;BME280;42176;43.240;27.880;2023-04-21T12:07:31;99615.56;;;14.39;53.10
56270;BME280;42176;43.240;27.880;2023-04-21T12:09:57;99592.50;;;14.38;53.56
56270;BME280;42176;43.240;27.880;2023-04-21T12:12:24;99582.25;;;14.10;53.40
56270;BME280;42176;43.240;27.880;2023-04-21T12:14:51;99608.84;;;14.11;54.12
56270;BME280;42176;43.240;27.880;2023-04-21T12:17:17;99607.38;;;14.04;55.86
56270;BME280;42176;43.240;27.880;2023-04-21T12:19:43;99624.28;;;14.03;56.89
56270;BME280;42176;43.240;27.880;2023-04-21T12:22:15;99585.34;;;13.80;54.78
56270;BME280;42176;43.240;27.880;2023-04-21T12:24:44;99625.09;;;14.05;56.41
56270;BME280;42176;43.240;27.880;2023-04-21T12:27:10;99625.78;;;14.29;57.97
56270;BME280;42176;43.240;27.880;2023-04-21T12:29:36;99592.50;;;14.19;57.49
56270;BME280;42176;43.240;27.880;2023-04-21T12:32:06;99612.22;;;14.15;56.94
56270;BME280;42176;43.240;27.880;2023-04-21T12:34:32;99601.66;;;14.13;58.07
56270;BME280;42176;43.240;27.880;2023-04-21T12:37:00;99584.31;;;14.03;55.78
56270;BME280;42176;43.240;27.880;2023-04-21T12:39:26;99581.66;;;14.03;56.81
56270;BME280;42176;43.240;27.880;2023-04-21T12:41:52;99620.69;;;14.04;55.84
56270;BME280;42176;43.240;27.880;2023-04-21T12:44:17;99610.44;;;14.15;55.31
56270;BME280;42176;43.240;27.880;2023-04-21T12:46:42;99638.53;;;14.02;53.88
56270;BME280;42176;43.240;27.880;2023-04-21T12:49:08;99562.06;;;14.04;54.40
56270;BME280;42176;43.240;27.880;2023-04-21T12:51:35;99617.22;;;14.02;53.58
56270;BME280;42176;43.240;27.880;2023-04-21T12:54:01;99606.88;;;13.96;53.43
56270;BME280;42176;43.240;27.880;2023-04-21T12:56:26;99585.69;;;13.93;54.26
56270;BME280;42176;43.240;27.880;2023-04-21T12:58:52;99630.16;;;13.91;52.45
56270;BME280;42176;43.240;27.880;2023-04-21T13:01:20;99599.13;;;13.90;52.71
56270;BME280;42176;43.240;27.880;2023-04-21T13:03:46;99624.84;;;13.91;54.22
56270;BME280;42176;43.240;27.880;2023-04-21T13:06:11;99630.56;;;14.02;54.22
56270;BME280;42176;43.240;27.880;2023-04-21T13:08:37;99639.22;;;14.07;52.93
56270;BME280;42176;43.240;27.880;2023-04-21T13:11:02;99629.34;;;14.09;52.21